createdAt,value
2022-11-24T00:00:11.966Z,4.24
2022-11-24T00:01:11.988Z,4.26
2022-11-24T00:02:12.075Z,4.27
2022-11-24T00:03:12.121Z,4.28
2022-11-24T00:04:11.998Z,4.31
2022-11-24T00:05:12.041Z,4.33
2022-11-24T00:06:12.076Z,4.33
2022-11-24T00:07:12.107Z,4.34
2022-11-24T00:08:12.034Z,4.36
2022-11-24T00:09:12.071Z,4.35
2022-11-24T00:10:12.095Z,4.35
2022-11-24T00:11:12.125Z,4.38
2022-11-24T00:12:12.115Z,4.38
2022-11-24T00:13:12.104Z,4.40
2022-11-24T00:14:12.126Z,4.40
2022-11-24T00:15:12.172Z,4.39
2022-11-24T00:16:12.263Z,4.38
2022-11-24T00:17:12.195Z,4.35
2022-11-24T00:18:12.217Z,4.38
2022-11-24T00:19:17.045Z,4.37
2022-11-24T00:20:12.191Z,4.36
2022-11-24T00:21:12.196Z,4.37
2022-11-24T00:22:12.201Z,4.44
2022-11-24T00:23:12.144Z,4.46
2022-11-24T00:24:12.161Z,4.45
2022-11-24T00:25:12.228Z,4.44
2022-11-24T00:26:12.203Z,4.43
2022-11-24T00:27:12.598Z,4.40
2022-11-24T00:28:12.204Z,4.36
2022-11-24T00:29:12.208Z,4.34
2022-11-24T00:30:12.199Z,4.34
2022-11-24T00:31:16.768Z,4.33
2022-11-24T00:32:12.196Z,4.30
2022-11-24T00:33:12.200Z,4.28
2022-11-24T00:34:12.203Z,4.28
2022-11-24T00:35:12.236Z,4.28
2022-11-24T00:36:12.208Z,4.26
2022-11-24T00:37:12.223Z,4.23
2022-11-24T00:38:12.235Z,4.24
2022-11-24T00:39:12.195Z,4.25
2022-11-24T00:40:12.201Z,4.26
2022-11-24T00:41:12.222Z,4.29
2022-11-24T00:42:12.248Z,4.31
2022-11-24T00:43:12.214Z,4.34
2022-11-24T00:44:12.208Z,4.36
2022-11-24T00:45:14.164Z,4.41
2022-11-24T00:46:12.324Z,4.45
2022-11-24T00:47:12.381Z,4.46
2022-11-24T00:48:12.223Z,4.50
2022-11-24T00:49:12.235Z,4.50
2022-11-24T00:50:12.226Z,4.52
2022-11-24T00:51:12.212Z,4.53
2022-11-24T00:52:12.235Z,4.54
2022-11-24T00:53:12.246Z,4.57
2022-11-24T00:54:12.232Z,4.58
2022-11-24T00:55:12.223Z,4.60
2022-11-24T00:56:12.235Z,4.60
2022-11-24T00:57:12.226Z,4.61
2022-11-24T00:58:12.231Z,4.61
2022-11-24T00:59:12.227Z,4.60
2022-11-24T01:00:12.222Z,4.63
2022-11-24T01:01:12.278Z,4.64
2022-11-24T01:02:12.337Z,4.63
2022-11-24T01:03:12.226Z,4.63
2022-11-24T01:04:12.242Z,4.63
2022-11-24T01:05:12.229Z,4.62
2022-11-24T01:06:12.236Z,4.59
2022-11-24T01:07:12.285Z,4.58
2022-11-24T01:08:12.266Z,4.56
2022-11-24T01:09:12.235Z,4.54
2022-11-24T01:10:12.256Z,4.51
2022-11-24T01:11:12.238Z,4.50
2022-11-24T01:12:12.246Z,4.51
2022-11-24T01:13:12.232Z,4.50
2022-11-24T01:14:12.271Z,4.48
2022-11-24T01:15:12.277Z,4.55
2022-11-24T01:16:12.360Z,4.70
2022-11-24T01:17:12.273Z,4.84
2022-11-24T01:18:12.307Z,4.93
2022-11-24T01:19:12.316Z,5.00
2022-11-24T01:20:12.338Z,5.02
2022-11-24T01:21:12.335Z,5.06
2022-11-24T01:22:12.363Z,5.09
2022-11-24T01:23:12.358Z,5.13
2022-11-24T01:24:12.382Z,5.15
2022-11-24T01:25:12.379Z,5.18
2022-11-24T01:26:12.395Z,5.21
2022-11-24T01:27:12.414Z,5.26
2022-11-24T01:28:12.407Z,5.32
2022-11-24T01:29:12.456Z,5.35
2022-11-24T01:30:12.440Z,5.37
2022-11-24T01:31:12.535Z,5.37
2022-11-24T01:32:12.448Z,5.35
2022-11-24T01:33:12.486Z,5.33
2022-11-24T01:34:12.496Z,5.31
2022-11-24T01:35:12.526Z,5.27
2022-11-24T01:36:12.505Z,5.25
2022-11-24T01:37:12.497Z,5.21
2022-11-24T01:38:12.551Z,5.15
2022-11-24T01:39:34.060Z,5.11
2022-11-24T01:40:34.073Z,5.09
2022-11-24T01:41:34.064Z,5.04
2022-11-24T01:42:34.077Z,5.00
2022-11-24T01:43:34.084Z,4.98
2022-11-24T01:44:34.380Z,4.97
2022-11-24T01:45:34.118Z,4.97
2022-11-24T01:46:34.172Z,4.96
2022-11-24T01:47:34.083Z,4.96
2022-11-24T01:48:34.102Z,5.03
2022-11-24T01:49:34.087Z,5.11
2022-11-24T01:50:34.110Z,5.16
2022-11-24T01:51:34.091Z,5.28
2022-11-24T01:52:34.100Z,5.34
2022-11-24T01:53:34.088Z,5.43
2022-11-24T01:54:34.386Z,5.49
2022-11-24T01:55:34.112Z,5.58
2022-11-24T01:56:34.099Z,5.62
2022-11-24T01:57:34.103Z,5.63
2022-11-24T01:58:34.115Z,5.61
2022-11-24T01:59:34.093Z,5.58
2022-11-24T02:00:34.088Z,5.56
2022-11-24T02:01:34.154Z,5.60
2022-11-24T02:02:34.149Z,5.65
2022-11-24T02:03:34.102Z,5.68
2022-11-24T02:04:34.408Z,5.67
2022-11-24T02:05:34.108Z,5.62
2022-11-24T02:06:34.148Z,5.58
2022-11-24T02:07:34.158Z,5.53
2022-11-24T02:08:34.099Z,5.48
2022-11-24T02:09:34.103Z,5.45
2022-11-24T02:10:34.115Z,5.44
2022-11-24T02:11:34.127Z,5.44
2022-11-24T02:12:34.116Z,5.43
2022-11-24T02:13:34.116Z,5.43
2022-11-24T02:14:34.389Z,5.45
2022-11-24T02:15:34.325Z,5.47
2022-11-24T02:16:34.284Z,5.48
2022-11-24T02:17:34.299Z,5.47
2022-11-24T02:18:34.292Z,5.47
2022-11-24T02:19:34.430Z,5.48
2022-11-24T02:20:34.319Z,5.47
2022-11-24T02:21:34.330Z,5.45
2022-11-24T02:22:34.370Z,5.45
2022-11-24T02:23:34.360Z,5.44
2022-11-24T02:24:34.628Z,5.42
2022-11-24T02:25:34.377Z,5.41
2022-11-24T02:26:34.393Z,5.42
2022-11-24T02:27:34.413Z,5.40
2022-11-24T02:28:34.425Z,5.40
2022-11-24T02:29:34.423Z,5.38
2022-11-24T02:30:34.445Z,5.38
2022-11-24T02:31:34.488Z,5.38
2022-11-24T02:32:34.495Z,5.37
2022-11-24T02:33:34.497Z,5.38
2022-11-24T02:34:34.665Z,5.43
2022-11-24T02:35:34.501Z,5.49
2022-11-24T02:36:34.504Z,5.51
2022-11-24T02:37:34.517Z,5.56
2022-11-24T02:38:34.547Z,5.68
2022-11-24T02:39:34.571Z,5.76
2022-11-24T02:40:34.561Z,5.78
2022-11-24T02:41:34.574Z,5.77
2022-11-24T02:42:34.595Z,5.79
2022-11-24T02:43:34.580Z,5.82
2022-11-24T02:44:34.833Z,5.83
2022-11-24T02:45:34.620Z,5.82
2022-11-24T02:46:34.676Z,5.80
2022-11-24T02:47:34.649Z,5.76
2022-11-24T02:48:34.642Z,5.73
2022-11-24T02:49:34.676Z,5.68
2022-11-24T02:50:34.676Z,5.63
2022-11-24T02:51:34.693Z,5.57
2022-11-24T02:52:34.706Z,5.52
2022-11-24T02:53:34.702Z,5.48
2022-11-24T02:54:35.061Z,5.42
2022-11-24T02:55:34.763Z,5.37
2022-11-24T02:56:34.772Z,5.32
2022-11-24T02:57:34.778Z,5.26
2022-11-24T02:58:34.789Z,5.21
2022-11-24T02:59:34.789Z,5.17
2022-11-24T03:00:34.804Z,5.13
2022-11-24T03:01:34.875Z,5.10
2022-11-24T03:02:34.861Z,5.07
2022-11-24T03:03:34.836Z,5.03
2022-11-24T03:04:35.029Z,4.99
2022-11-24T03:05:34.883Z,4.93
2022-11-24T03:06:34.883Z,4.89
2022-11-24T03:07:34.940Z,4.85
2022-11-24T03:08:34.896Z,4.84
2022-11-24T03:09:35.138Z,4.81
2022-11-24T03:10:34.939Z,4.79
2022-11-24T03:11:34.948Z,4.75
2022-11-24T03:12:34.934Z,4.74
2022-11-24T03:13:34.946Z,4.72
2022-11-24T03:14:35.285Z,4.71
2022-11-24T03:15:35.041Z,4.68
2022-11-24T03:16:35.004Z,4.64
2022-11-24T03:17:35.005Z,4.60
2022-11-24T03:18:35.020Z,4.56
2022-11-24T03:19:35.030Z,4.52
2022-11-24T03:20:35.059Z,4.49
2022-11-24T03:21:35.064Z,4.46
2022-11-24T03:22:35.055Z,4.42
2022-11-24T03:23:35.083Z,4.42
2022-11-24T03:24:35.343Z,4.40
2022-11-24T03:25:35.114Z,4.37
2022-11-24T03:26:35.117Z,4.34
2022-11-24T03:27:35.128Z,4.31
2022-11-24T03:28:35.130Z,4.28
2022-11-24T03:29:35.165Z,4.26
2022-11-24T03:30:35.168Z,4.23
2022-11-24T03:31:35.262Z,4.21
2022-11-24T03:32:35.177Z,4.19
2022-11-24T03:33:35.197Z,4.15
2022-11-24T03:34:35.518Z,4.13
2022-11-24T03:35:35.209Z,4.09
2022-11-24T03:36:35.234Z,4.08
2022-11-24T03:37:35.244Z,4.07
2022-11-24T03:38:35.240Z,4.04
2022-11-24T03:39:35.257Z,4.04
2022-11-24T03:40:35.291Z,4.03
2022-11-24T03:41:35.302Z,4.02
2022-11-24T03:42:35.293Z,4.01
2022-11-24T03:43:39.103Z,4.01
2022-11-24T03:44:35.576Z,4.03
2022-11-24T03:45:45.877Z,4.04
2022-11-24T03:46:35.371Z,4.04
2022-11-24T03:47:35.317Z,4.04
2022-11-24T03:48:35.336Z,4.05
2022-11-24T03:49:35.512Z,4.05
2022-11-24T03:50:35.328Z,4.04
2022-11-24T03:51:35.338Z,4.03
2022-11-24T03:52:35.312Z,4.01
2022-11-24T03:53:35.314Z,4.00
2022-11-24T03:54:35.523Z,3.98
2022-11-24T03:55:35.316Z,3.98
2022-11-24T03:56:35.340Z,3.97
2022-11-24T03:57:35.325Z,4.01
2022-11-24T03:58:35.323Z,4.03
2022-11-24T03:59:35.351Z,4.03
2022-11-24T04:00:35.316Z,4.04
2022-11-24T04:01:35.372Z,4.04
2022-11-24T04:02:35.392Z,4.05
2022-11-24T04:03:35.323Z,4.11
2022-11-24T04:04:35.605Z,4.30
2022-11-24T04:05:35.327Z,4.39
2022-11-24T04:06:35.363Z,4.44
2022-11-24T04:07:35.459Z,4.60
2022-11-24T04:08:35.338Z,4.77
2022-11-24T04:09:35.337Z,4.93
2022-11-24T04:10:35.333Z,5.07
2022-11-24T04:11:35.353Z,5.14
2022-11-24T04:12:35.344Z,5.22
2022-11-24T04:13:35.367Z,5.30
2022-11-24T04:14:35.758Z,5.34
2022-11-24T04:15:35.349Z,5.39
2022-11-24T04:16:35.400Z,5.42
2022-11-24T04:17:35.372Z,5.43
2022-11-24T04:18:35.372Z,5.49
2022-11-24T04:19:35.334Z,5.54
2022-11-24T04:20:35.396Z,5.58
2022-11-24T04:21:35.350Z,5.65
2022-11-24T04:22:35.370Z,5.68
2022-11-24T04:23:35.350Z,5.73
2022-11-24T04:24:35.593Z,5.79
2022-11-24T04:25:35.334Z,5.83
2022-11-24T04:26:35.344Z,5.86
2022-11-24T04:27:35.368Z,5.91
2022-11-24T04:28:35.357Z,5.96
2022-11-24T04:29:35.354Z,6.01
2022-11-24T04:30:35.369Z,6.05
2022-11-24T04:31:35.425Z,6.07
2022-11-24T04:32:35.389Z,6.09
2022-11-24T04:33:35.361Z,6.14
2022-11-24T04:34:35.757Z,6.16
2022-11-24T04:35:35.351Z,6.18
2022-11-24T04:36:35.363Z,6.21
2022-11-24T04:37:35.373Z,6.22
2022-11-24T04:39:23.084Z,6.24
2022-11-24T04:39:35.365Z,6.28
2022-11-24T04:40:35.388Z,6.31
2022-11-24T04:41:35.365Z,6.31
2022-11-24T04:42:35.374Z,6.31
2022-11-24T04:43:40.453Z,6.35
2022-11-24T04:44:35.802Z,6.37
2022-11-24T04:45:35.364Z,6.40
2022-11-24T04:46:35.419Z,6.44
2022-11-24T04:47:35.374Z,6.48
2022-11-24T04:48:35.392Z,6.53
2022-11-24T04:49:35.371Z,6.55
2022-11-24T04:50:35.389Z,6.58
2022-11-24T04:51:35.375Z,6.58
2022-11-24T04:52:35.361Z,6.60
2022-11-24T04:53:35.390Z,6.63
2022-11-24T04:54:35.787Z,6.65
2022-11-24T04:55:35.381Z,6.66
2022-11-24T04:56:35.371Z,6.65
2022-11-24T04:57:35.384Z,6.65
2022-11-24T04:58:35.464Z,6.64
2022-11-24T04:59:35.403Z,6.64
2022-11-24T05:00:35.374Z,6.66
2022-11-24T05:01:35.421Z,6.66
2022-11-24T05:02:35.384Z,6.67
2022-11-24T05:03:35.384Z,6.69
2022-11-24T05:04:35.782Z,6.68
2022-11-24T05:05:35.396Z,6.69
2022-11-24T05:06:35.394Z,6.69
2022-11-24T05:07:35.423Z,6.72
2022-11-24T05:08:35.398Z,6.77
2022-11-24T05:09:58.158Z,6.81
2022-11-24T05:10:35.400Z,6.84
2022-11-24T05:11:35.390Z,6.85
2022-11-24T05:12:35.397Z,6.86
2022-11-24T05:13:35.408Z,6.87
2022-11-24T05:14:35.626Z,6.88
2022-11-24T05:15:35.403Z,6.89
2022-11-24T05:16:35.453Z,6.92
2022-11-24T05:17:35.407Z,6.96
2022-11-24T05:18:35.417Z,6.98
2022-11-24T05:19:35.405Z,7.00
2022-11-24T05:20:35.435Z,7.00
2022-11-24T05:21:35.399Z,7.02
2022-11-24T05:22:35.395Z,7.02
2022-11-24T05:23:35.399Z,7.02
2022-11-24T05:24:35.851Z,7.02
2022-11-24T05:25:35.415Z,7.04
2022-11-24T05:26:35.416Z,7.03
2022-11-24T05:27:35.411Z,7.02
2022-11-24T05:28:35.418Z,6.99
2022-11-24T05:29:35.413Z,6.99
2022-11-24T05:30:35.433Z,7.00
2022-11-24T05:31:35.449Z,6.99
2022-11-24T05:32:35.436Z,6.98
2022-11-24T05:33:35.406Z,6.99
2022-11-24T05:34:35.820Z,7.00
2022-11-24T05:35:35.428Z,6.99
2022-11-24T05:36:35.452Z,6.99
2022-11-24T05:37:35.400Z,6.99
2022-11-24T05:38:35.444Z,7.00
2022-11-24T05:39:35.429Z,7.00
2022-11-24T05:40:35.471Z,6.98
2022-11-24T05:41:35.422Z,6.97
2022-11-24T05:42:35.434Z,6.96
2022-11-24T05:43:35.448Z,6.97
2022-11-24T05:44:35.896Z,6.97
2022-11-24T05:45:35.430Z,6.95
2022-11-24T05:46:35.480Z,6.97
2022-11-24T05:47:35.455Z,6.98
2022-11-24T05:48:35.447Z,6.98
2022-11-24T05:49:35.429Z,7.00
2022-11-24T05:50:35.430Z,7.00
2022-11-24T05:51:35.468Z,7.00
2022-11-24T05:52:35.438Z,7.00
2022-11-24T05:53:35.443Z,6.99
2022-11-24T05:54:35.828Z,6.98
2022-11-24T05:55:35.442Z,6.98
2022-11-24T05:56:35.454Z,6.96
2022-11-24T05:57:35.456Z,6.95
2022-11-24T05:58:35.441Z,6.96
2022-11-24T05:59:35.540Z,6.95
2022-11-24T06:00:35.440Z,6.95
2022-11-24T06:01:35.501Z,6.96
2022-11-24T06:02:35.569Z,6.97
2022-11-24T06:03:35.444Z,6.96
2022-11-24T06:04:35.682Z,6.95
2022-11-24T06:05:35.440Z,6.94
2022-11-24T06:06:35.457Z,6.95
2022-11-24T06:07:35.531Z,6.95
2022-11-24T06:08:35.476Z,6.96
2022-11-24T06:09:35.448Z,6.95
2022-11-24T06:10:35.458Z,6.94
2022-11-24T06:11:35.451Z,6.93
2022-11-24T06:12:35.453Z,6.93
2022-11-24T06:13:35.498Z,6.92
2022-11-24T06:14:35.799Z,6.94
2022-11-24T06:15:35.449Z,6.93
2022-11-24T06:16:35.520Z,6.94
2022-11-24T06:17:35.453Z,6.96
2022-11-24T06:18:35.467Z,6.98
2022-11-24T06:19:40.022Z,6.98
2022-11-24T06:20:35.462Z,7.00
2022-11-24T06:21:35.469Z,7.01
2022-11-24T06:22:35.452Z,7.01
2022-11-24T06:23:35.544Z,7.01
2022-11-24T06:24:35.696Z,7.01
2022-11-24T06:25:35.458Z,7.01
2022-11-24T06:26:35.454Z,7.00
2022-11-24T06:27:35.460Z,6.99
2022-11-24T06:28:35.482Z,6.99
2022-11-24T06:29:35.496Z,6.98
2022-11-24T06:30:35.466Z,6.97
2022-11-24T06:31:35.520Z,6.98
2022-11-24T06:32:35.484Z,6.97
2022-11-24T06:33:35.487Z,6.98
2022-11-24T06:34:35.694Z,6.97
2022-11-24T06:35:35.483Z,6.98
2022-11-24T06:36:35.514Z,6.98
2022-11-24T06:37:35.492Z,6.99
2022-11-24T06:38:35.454Z,6.99
2022-11-24T06:39:35.528Z,7.00
2022-11-24T06:40:35.480Z,7.01
2022-11-24T06:41:35.508Z,7.02
2022-11-24T06:42:35.473Z,7.01
2022-11-24T06:43:35.485Z,7.00
2022-11-24T06:44:35.736Z,6.97
2022-11-24T06:45:35.529Z,6.98
2022-11-24T06:46:35.453Z,6.98
2022-11-24T06:47:35.488Z,6.97
2022-11-24T06:48:35.514Z,6.98
2022-11-24T06:49:35.502Z,7.00
2022-11-24T06:50:35.482Z,7.02
2022-11-24T06:51:35.503Z,7.03
2022-11-24T06:52:35.498Z,7.04
2022-11-24T06:53:35.483Z,7.04
2022-11-24T06:54:35.678Z,7.07
2022-11-24T06:55:35.510Z,7.07
2022-11-24T06:56:35.474Z,7.09
2022-11-24T06:57:35.503Z,7.10
2022-11-24T06:58:35.496Z,7.10
2022-11-24T06:59:35.498Z,7.11
2022-11-24T07:00:35.560Z,7.11
2022-11-24T07:01:35.529Z,7.10
2022-11-24T07:02:35.556Z,7.10
2022-11-24T07:03:35.564Z,7.11
2022-11-24T07:04:35.693Z,7.10
2022-11-24T07:05:35.685Z,7.09
2022-11-24T07:06:35.507Z,7.09
2022-11-24T07:07:35.556Z,7.09
2022-11-24T07:08:35.504Z,7.10
2022-11-24T07:09:35.509Z,7.09
2022-11-24T07:10:35.581Z,7.10
2022-11-24T07:11:35.517Z,7.11
2022-11-24T07:12:35.519Z,7.11
2022-11-24T07:13:35.502Z,7.10
2022-11-24T07:14:35.894Z,7.10
2022-11-24T07:15:35.518Z,7.10
2022-11-24T07:16:35.549Z,7.10
2022-11-24T07:17:35.508Z,7.10
2022-11-24T07:18:35.512Z,7.11
2022-11-24T07:19:35.510Z,7.13
2022-11-24T07:20:35.535Z,7.15
2022-11-24T07:21:35.513Z,7.15
2022-11-24T07:22:35.538Z,7.15
2022-11-24T07:23:35.523Z,7.14
2022-11-24T07:24:35.817Z,7.15
2022-11-24T07:25:35.564Z,7.14
2022-11-24T07:26:35.518Z,7.12
2022-11-24T07:27:35.576Z,7.13
2022-11-24T07:28:35.541Z,7.13
2022-11-24T07:29:35.539Z,7.13
2022-11-24T07:30:35.517Z,7.12
2022-11-24T07:31:35.584Z,7.12
2022-11-24T07:32:35.616Z,7.12
2022-11-24T07:33:35.549Z,7.13
2022-11-24T07:34:35.843Z,7.14
2022-11-24T07:35:35.529Z,7.13
2022-11-24T07:36:35.535Z,7.13
2022-11-24T07:37:35.529Z,7.13
2022-11-24T07:38:35.629Z,7.14
2022-11-24T07:39:57.796Z,7.14
2022-11-24T07:40:57.816Z,7.15
2022-11-24T07:41:57.819Z,7.14
2022-11-24T07:42:57.813Z,7.13
2022-11-24T07:43:57.813Z,7.15
2022-11-24T07:44:57.817Z,7.16
2022-11-24T07:45:57.857Z,7.19
2022-11-24T07:46:57.806Z,7.20
2022-11-24T07:47:57.798Z,7.20
2022-11-24T07:48:57.800Z,7.20
2022-11-24T07:49:57.825Z,7.22
2022-11-24T07:50:57.809Z,7.23
2022-11-24T07:51:57.842Z,7.24
2022-11-24T07:52:57.811Z,7.23
2022-11-24T07:53:57.827Z,7.25
2022-11-24T07:54:57.892Z,7.27
2022-11-24T07:55:57.844Z,7.28
2022-11-24T07:56:57.834Z,7.29
2022-11-24T07:57:57.806Z,7.30
2022-11-24T07:58:57.837Z,7.32
2022-11-24T07:59:57.847Z,7.33
2022-11-24T08:00:57.825Z,7.34
2022-11-24T08:01:57.914Z,7.35
2022-11-24T08:02:57.829Z,7.37
2022-11-24T08:03:57.901Z,7.37
2022-11-24T08:04:57.846Z,7.36
2022-11-24T08:06:22.167Z,7.38
2022-11-24T08:06:57.856Z,7.39
2022-11-24T08:07:57.889Z,7.41
2022-11-24T08:08:57.834Z,7.42
2022-11-24T08:09:57.862Z,7.42
2022-11-24T08:10:57.829Z,7.43
2022-11-24T08:11:57.837Z,7.45
2022-11-24T08:12:57.834Z,7.46
2022-11-24T08:13:57.863Z,7.49
2022-11-24T08:14:57.917Z,7.49
2022-11-24T08:15:57.853Z,7.50
2022-11-24T08:16:58.068Z,7.52
2022-11-24T08:17:57.985Z,7.55
2022-11-24T08:18:58.013Z,7.57
2022-11-24T08:19:58.032Z,7.60
2022-11-24T08:20:58.561Z,7.60
2022-11-24T08:21:58.044Z,7.61
2022-11-24T08:22:58.068Z,7.64
2022-11-24T08:23:58.094Z,7.66
2022-11-24T08:24:58.073Z,7.67
2022-11-24T08:25:58.105Z,7.68
2022-11-24T08:26:58.113Z,7.70
2022-11-24T08:27:58.127Z,7.71
2022-11-24T08:28:58.126Z,7.72
2022-11-24T08:29:58.146Z,7.76
2022-11-24T08:30:58.141Z,7.77
2022-11-24T08:31:58.266Z,7.80
2022-11-24T08:32:58.192Z,7.81
2022-11-24T08:33:58.198Z,7.82
2022-11-24T08:35:13.030Z,7.84
2022-11-24T08:35:58.197Z,7.86
2022-11-24T08:36:58.186Z,7.89
2022-11-24T08:38:03.185Z,7.91
2022-11-24T08:38:58.190Z,7.95
2022-11-24T08:39:58.202Z,7.98
2022-11-24T08:40:58.201Z,8.02
2022-11-24T08:41:58.221Z,8.04
2022-11-24T08:42:58.205Z,8.08
2022-11-24T08:43:58.227Z,8.10
2022-11-24T08:44:59.139Z,8.12
2022-11-24T08:45:58.362Z,8.16
2022-11-24T08:46:58.225Z,8.17
2022-11-24T08:47:58.302Z,8.18
2022-11-24T08:48:58.201Z,8.21
2022-11-24T08:49:58.207Z,8.21
2022-11-24T08:50:58.193Z,8.24
2022-11-24T08:51:58.213Z,8.22
2022-11-24T08:52:58.208Z,8.20
2022-11-24T08:53:58.366Z,8.20
2022-11-24T08:54:58.219Z,8.18
2022-11-24T08:55:58.217Z,8.16
2022-11-24T08:56:58.231Z,8.15
2022-11-24T08:57:58.224Z,8.11
2022-11-24T08:58:58.281Z,8.09
2022-11-24T08:59:58.219Z,8.07
2022-11-24T09:00:58.297Z,8.05
2022-11-24T09:01:58.440Z,8.03
2022-11-24T09:02:58.287Z,8.01
2022-11-24T09:03:58.344Z,8.01
2022-11-24T09:04:58.289Z,8.00
2022-11-24T09:05:58.293Z,7.99
2022-11-24T09:06:58.324Z,7.99
2022-11-24T09:07:58.438Z,7.98
2022-11-24T09:08:58.357Z,7.98
2022-11-24T09:09:58.353Z,7.99
2022-11-24T09:10:58.371Z,8.01
2022-11-24T09:11:58.398Z,8.01
2022-11-24T09:12:58.406Z,8.01
2022-11-24T09:13:58.428Z,8.01
2022-11-24T09:14:58.403Z,8.03
2022-11-24T09:15:58.430Z,8.03
2022-11-24T09:16:58.486Z,8.04
2022-11-24T09:17:58.484Z,8.07
2022-11-24T09:18:58.482Z,8.07
2022-11-24T09:19:58.490Z,8.09
2022-11-24T09:20:58.506Z,8.11
2022-11-24T09:21:58.494Z,8.11
2022-11-24T09:22:58.511Z,8.12
2022-11-24T09:23:58.532Z,8.12
2022-11-24T09:24:58.564Z,8.12
2022-11-24T09:25:58.544Z,8.15
2022-11-24T09:26:58.552Z,8.17
2022-11-24T09:27:58.565Z,8.21
2022-11-24T09:28:58.579Z,8.22
2022-11-24T09:29:58.594Z,8.24
2022-11-24T09:30:58.692Z,8.25
2022-11-24T09:32:02.108Z,8.27
2022-11-24T09:32:58.617Z,8.26
2022-11-24T09:33:58.634Z,8.26
2022-11-24T09:34:58.651Z,8.29
2022-11-24T09:35:58.628Z,8.32
2022-11-24T09:36:58.626Z,8.34
2022-11-24T09:37:58.671Z,8.35
2022-11-24T09:38:58.672Z,8.36
2022-11-24T09:39:58.617Z,8.36
2022-11-24T09:40:58.641Z,8.35
2022-11-24T09:41:58.637Z,8.37
2022-11-24T09:42:58.627Z,8.36
2022-11-24T09:43:58.665Z,8.36
2022-11-24T09:44:58.632Z,8.35
2022-11-24T09:46:05.402Z,8.34
2022-11-24T09:46:58.688Z,8.35
2022-11-24T09:47:58.636Z,8.36
2022-11-24T09:48:58.656Z,8.36
2022-11-24T09:49:58.658Z,8.38
2022-11-24T09:50:58.637Z,8.38
2022-11-24T09:51:58.636Z,8.39
2022-11-24T09:52:58.664Z,8.40
2022-11-24T09:53:58.647Z,8.41
2022-11-24T09:54:58.663Z,8.44
2022-11-24T09:55:58.636Z,8.47
2022-11-24T09:56:58.634Z,8.47
2022-11-24T09:57:58.667Z,8.53
2022-11-24T09:58:58.674Z,8.58
2022-11-24T09:59:58.670Z,8.60
2022-11-24T10:00:58.735Z,8.62
2022-11-24T10:01:58.738Z,8.68
2022-11-24T10:02:58.643Z,8.73
2022-11-24T10:04:04.263Z,8.78
2022-11-24T10:04:58.694Z,8.81
2022-11-24T10:05:58.672Z,8.86
2022-11-24T10:06:58.664Z,8.86
2022-11-24T10:07:58.695Z,8.86
2022-11-24T10:08:58.661Z,8.89
2022-11-24T10:09:58.651Z,8.91
2022-11-24T10:10:58.673Z,8.94
2022-11-24T10:11:58.673Z,8.94
2022-11-24T10:12:58.667Z,8.93
2022-11-24T10:13:58.674Z,8.95
2022-11-24T10:14:58.653Z,8.93
2022-11-24T10:15:58.756Z,8.91
2022-11-24T10:16:58.642Z,8.91
2022-11-24T10:17:58.674Z,8.90
2022-11-24T10:18:58.663Z,8.92
2022-11-24T10:19:58.668Z,8.95
2022-11-24T10:20:58.696Z,9.00
2022-11-24T10:21:58.678Z,9.02
2022-11-24T10:22:58.694Z,9.03
2022-11-24T10:23:58.716Z,9.07
2022-11-24T10:24:58.671Z,9.12
2022-11-24T10:25:58.727Z,9.18
2022-11-24T10:26:58.677Z,9.19
2022-11-24T10:27:58.688Z,9.20
2022-11-24T10:28:58.674Z,9.23
2022-11-24T10:29:58.672Z,9.24
2022-11-24T10:30:58.721Z,9.24
2022-11-24T10:31:58.681Z,9.30
2022-11-24T10:32:58.753Z,9.36
2022-11-24T10:33:58.681Z,9.44
2022-11-24T10:34:58.702Z,9.52
2022-11-24T10:35:58.717Z,9.59
2022-11-24T10:36:58.698Z,9.66
2022-11-24T10:37:58.693Z,9.69
2022-11-24T10:38:58.686Z,9.70
2022-11-24T10:40:00.274Z,9.72
2022-11-24T10:40:58.806Z,9.69
2022-11-24T10:41:58.856Z,9.69
2022-11-24T10:42:58.687Z,9.69
2022-11-24T10:43:58.690Z,9.66
2022-11-24T10:44:58.722Z,9.66
2022-11-24T10:45:58.709Z,9.67
2022-11-24T10:46:58.778Z,9.71
2022-11-24T10:47:58.750Z,9.73
2022-11-24T10:48:58.713Z,9.75
2022-11-24T10:49:58.717Z,9.75
2022-11-24T10:50:58.736Z,9.75
2022-11-24T10:51:58.762Z,9.74
2022-11-24T10:52:58.770Z,9.73
2022-11-24T10:53:59.887Z,9.72
2022-11-24T10:54:58.798Z,9.73
2022-11-24T10:55:58.802Z,9.74
2022-11-24T10:56:58.824Z,9.77
2022-11-24T10:57:58.823Z,9.75
2022-11-24T10:58:58.828Z,9.76
2022-11-24T10:59:58.861Z,9.73
2022-11-24T11:00:58.922Z,9.74
2022-11-24T11:01:58.966Z,9.74
2022-11-24T11:02:58.967Z,9.77
2022-11-24T11:03:58.895Z,9.74
2022-11-24T11:04:58.918Z,9.72
2022-11-24T11:05:58.922Z,9.70
2022-11-24T11:06:58.966Z,9.70
2022-11-24T11:08:05.234Z,9.68
2022-11-24T11:08:58.990Z,9.67
2022-11-24T11:09:58.997Z,9.66
2022-11-24T11:10:58.998Z,9.66
2022-11-24T11:11:59.116Z,9.65
2022-11-24T11:12:58.939Z,9.67
2022-11-24T11:14:03.456Z,9.67
2022-11-24T11:14:58.945Z,9.68
2022-11-24T11:15:59.011Z,9.67
2022-11-24T11:16:58.970Z,9.64
2022-11-24T11:17:58.979Z,9.66
2022-11-24T11:18:58.969Z,9.66
2022-11-24T11:20:02.311Z,9.68
2022-11-24T11:20:58.955Z,9.72
2022-11-24T11:21:58.965Z,9.75
2022-11-24T11:22:58.979Z,9.79
2022-11-24T11:23:58.959Z,9.81
2022-11-24T11:24:58.970Z,9.83
2022-11-24T11:25:58.959Z,9.85
2022-11-24T11:26:58.967Z,9.85
2022-11-24T11:27:59.807Z,9.83
2022-11-24T11:31:15.180Z,9.84
2022-11-24T11:31:17.756Z,9.82
2022-11-24T11:34:08.248Z,9.80
2022-11-24T11:34:58.975Z,9.74
2022-11-24T11:35:58.984Z,9.70
2022-11-24T11:36:58.975Z,9.68
2022-11-24T11:37:58.987Z,9.66
2022-11-24T11:38:59.001Z,9.64
2022-11-24T11:39:58.992Z,9.61
2022-11-24T11:40:59.001Z,9.59
2022-11-24T11:41:59.003Z,9.55
2022-11-24T11:43:03.275Z,9.53
2022-11-24T11:43:58.978Z,9.50
2022-11-24T11:44:59.023Z,9.49
2022-11-24T11:45:59.107Z,9.49
2022-11-24T11:46:59.093Z,9.46
2022-11-24T11:47:58.990Z,9.44
2022-11-24T11:48:58.984Z,9.44
2022-11-24T11:49:59.006Z,9.41
2022-11-24T11:51:22.436Z,9.38
2022-11-24T11:51:59.000Z,9.37
2022-11-24T11:52:59.053Z,9.34
2022-11-24T11:53:59.024Z,9.34
2022-11-24T11:54:59.001Z,9.33
2022-11-24T11:55:59.020Z,9.34
2022-11-24T11:56:58.987Z,9.38
2022-11-24T11:57:59.004Z,9.39
2022-11-24T11:58:59.012Z,9.41
2022-11-24T11:59:59.030Z,9.41
2022-11-24T12:00:58.998Z,9.42
2022-11-24T12:01:58.980Z,9.43
2022-11-24T12:02:59.093Z,9.45
2022-11-24T12:03:59.119Z,9.45
2022-11-24T12:04:58.997Z,9.48
2022-11-24T12:05:59.004Z,9.51
2022-11-24T12:06:59.004Z,9.54
2022-11-24T12:08:01.320Z,9.54
2022-11-24T12:09:18.715Z,9.53
2022-11-24T12:09:59.001Z,9.52
2022-11-24T12:10:59.019Z,9.53
2022-11-24T12:11:59.020Z,9.51
2022-11-24T12:12:59.027Z,9.51
2022-11-24T12:13:59.030Z,9.52
2022-11-24T12:14:59.015Z,9.53
2022-11-24T12:15:59.150Z,9.57
2022-11-24T12:16:59.040Z,9.61
2022-11-24T12:17:59.019Z,9.68
2022-11-24T12:18:59.297Z,9.75
2022-11-24T12:19:59.033Z,9.83
2022-11-24T12:20:59.009Z,9.91
2022-11-24T12:21:59.039Z,9.99
2022-11-24T12:22:59.017Z,10.12
2022-11-24T12:23:59.043Z,10.24
2022-11-24T12:24:59.129Z,10.34
2022-11-24T12:25:59.037Z,10.40
2022-11-24T12:26:59.027Z,10.46
2022-11-24T12:27:59.021Z,10.50
2022-11-24T12:28:59.040Z,10.56
2022-11-24T12:29:59.077Z,10.62
2022-11-24T12:30:59.093Z,10.67
2022-11-24T12:31:59.066Z,10.73
2022-11-24T12:32:59.025Z,10.82
2022-11-24T12:34:01.322Z,10.90
2022-11-24T12:34:59.080Z,10.97
2022-11-24T12:35:59.067Z,11.00
2022-11-24T12:36:59.081Z,11.01
2022-11-24T12:37:59.116Z,10.97
2022-11-24T12:38:59.137Z,10.94
2022-11-24T12:39:59.124Z,10.97
2022-11-24T12:41:18.113Z,10.98
2022-11-24T12:41:59.132Z,10.95
2022-11-24T12:42:59.147Z,10.92
2022-11-24T12:43:59.149Z,10.96
2022-11-24T12:44:59.163Z,11.06
2022-11-24T12:45:59.168Z,11.21
2022-11-24T12:46:59.220Z,11.32
2022-11-24T12:47:59.157Z,11.31
2022-11-24T12:48:59.136Z,11.31
2022-11-24T12:49:59.143Z,11.35
2022-11-24T12:50:59.138Z,11.45
2022-11-24T12:51:59.154Z,11.57
2022-11-24T12:52:59.228Z,11.70
2022-11-24T12:53:59.144Z,11.85
2022-11-24T12:54:59.160Z,12.01
2022-11-24T12:55:59.165Z,12.06
2022-11-24T12:56:59.152Z,12.02
2022-11-24T12:57:59.159Z,12.08
2022-11-24T12:58:59.189Z,12.28
2022-11-24T12:59:59.136Z,12.59
2022-11-24T13:00:59.139Z,12.93
2022-11-24T13:01:59.273Z,13.22
2022-11-24T13:02:59.223Z,13.51
2022-11-24T13:03:59.160Z,13.75
2022-11-24T13:04:59.168Z,13.99
2022-11-24T13:05:59.147Z,14.10
2022-11-24T13:06:59.147Z,14.13
2022-11-24T13:07:59.181Z,14.22
2022-11-24T13:08:59.169Z,14.33
2022-11-24T13:09:59.184Z,14.08
2022-11-24T13:10:59.167Z,13.79
2022-11-24T13:12:03.401Z,13.55
2022-11-24T13:12:59.162Z,13.36
2022-11-24T13:13:59.150Z,13.25
2022-11-24T13:14:59.172Z,13.14
2022-11-24T13:16:34.426Z,12.96
2022-11-24T13:18:59.240Z,12.33
2022-11-24T13:19:59.181Z,12.07
2022-11-24T13:20:59.165Z,11.92
2022-11-24T13:21:59.179Z,11.80